createdAt,value
2023-03-15T00:01:19.361Z,0.80
2023-03-15T00:03:46.779Z,1.80
2023-03-15T00:06:15.994Z,1.10
2023-03-15T00:08:47.037Z,1.60
2023-03-15T00:11:16.654Z,1.70
2023-03-15T00:13:46.228Z,2.10
2023-03-15T00:18:50.111Z,2.20
2023-03-15T00:21:16.758Z,4.00
2023-03-15T00:23:45.557Z,2.60
2023-03-15T00:26:12.639Z,2.20
2023-03-15T00:28:41.817Z,1.80
2023-03-15T00:31:15.810Z,1.90
2023-03-15T00:33:45.326Z,1.10
2023-03-15T00:36:14.737Z,1.60
2023-03-15T00:38:43.852Z,1.80
2023-03-15T00:41:13.374Z,2.00
2023-03-15T00:43:41.504Z,2.10
2023-03-15T00:46:08.366Z,2.00
2023-03-15T00:48:35.772Z,3.60
2023-03-15T00:51:03.141Z,2.30
2023-03-15T00:53:35.563Z,1.90
2023-03-15T00:56:11.322Z,1.90
2023-03-15T00:58:38.581Z,3.80
2023-03-15T01:01:20.412Z,2.20
2023-03-15T01:03:49.976Z,2.60
2023-03-15T01:06:21.370Z,2.60
2023-03-15T01:48:54.655Z,8.30
2023-03-15T01:52:15.638Z,5.30
2023-03-15T01:55:29.346Z,6.90
2023-03-15T01:58:39.626Z,6.60
2023-03-15T02:01:34.608Z,8.70
2023-03-15T02:04:55.344Z,8.50
2023-03-15T02:08:00.643Z,9.80
2023-03-15T02:11:09.641Z,13.30
2023-03-15T02:14:10.599Z,11.50
2023-03-15T02:17:10.582Z,10.20
2023-03-15T02:20:16.588Z,9.90
2023-03-15T02:23:47.463Z,10.70
2023-03-15T02:40:38.332Z,10.00
2023-03-15T03:51:27.402Z,15.10
2023-03-15T04:52:50.257Z,9.80
2023-03-15T05:17:36.308Z,14.80
2023-03-15T08:05:39.409Z,9.80
2023-03-15T08:08:06.752Z,14.60
2023-03-15T08:10:36.073Z,14.80
2023-03-15T08:13:02.896Z,10.80
2023-03-15T08:15:29.504Z,16.90
2023-03-15T08:17:56.116Z,12.80
2023-03-15T08:20:29.975Z,10.70
2023-03-15T08:23:02.033Z,6.70
2023-03-15T08:25:35.920Z,9.30
2023-03-15T08:28:02.418Z,17.60
2023-03-15T08:30:28.797Z,10.00
2023-03-15T08:32:57.701Z,11.80
2023-03-15T08:35:27.005Z,11.90
2023-03-15T08:37:55.909Z,10.40
2023-03-15T08:40:25.411Z,9.80
2023-03-15T08:42:57.882Z,16.50
2023-03-15T08:45:25.721Z,10.90
2023-03-15T08:47:56.644Z,18.90
2023-03-15T08:50:24.023Z,12.20
2023-03-15T08:52:53.842Z,11.60
2023-03-15T08:55:20.460Z,12.00
2023-03-15T08:57:47.259Z,9.80
2023-03-15T09:00:19.977Z,14.80
2023-03-15T09:02:51.215Z,10.70
2023-03-15T09:05:21.149Z,13.00
2023-03-15T09:07:48.064Z,11.30
2023-03-15T09:10:18.692Z,11.70
2023-03-15T09:12:51.494Z,10.60
2023-03-15T09:15:18.622Z,11.00
2023-03-15T09:17:55.614Z,14.40
2023-03-15T09:20:27.487Z,14.90
2023-03-15T09:22:57.885Z,12.60
2023-03-15T09:25:26.991Z,12.10
2023-03-15T09:27:55.917Z,11.30
2023-03-15T09:30:32.052Z,12.60
2023-03-15T09:33:01.068Z,17.80
2023-03-15T09:35:32.112Z,9.80
2023-03-15T09:37:59.979Z,10.90
2023-03-15T09:40:31.801Z,8.40
2023-03-15T09:43:09.560Z,12.10
2023-03-15T09:46:09.070Z,14.20
2023-03-15T09:48:53.552Z,12.20
2023-03-15T09:51:35.313Z,8.60
2023-03-15T09:54:11.391Z,9.50
2023-03-15T09:57:01.471Z,5.60
2023-03-15T09:59:42.961Z,10.60
2023-03-15T10:02:23.436Z,13.20
2023-03-15T10:05:01.429Z,12.50
2023-03-15T10:07:28.015Z,12.30
2023-03-15T10:10:00.762Z,10.30
2023-03-15T10:12:40.073Z,6.80
2023-03-15T10:15:32.063Z,10.60
2023-03-15T10:18:27.046Z,8.00
2023-03-15T10:21:03.688Z,8.60
2023-03-15T10:23:46.485Z,9.80
2023-03-15T10:26:23.733Z,10.80
2023-03-15T10:28:55.107Z,8.60
2023-03-15T10:31:41.419Z,11.50
2023-03-15T10:34:16.171Z,8.60
2023-03-15T10:36:49.217Z,6.50
2023-03-15T10:39:16.100Z,6.60
2023-03-15T10:41:50.088Z,5.20
2023-03-15T10:44:23.761Z,5.50
2023-03-15T10:47:23.050Z,9.30
2023-03-15T10:49:57.474Z,9.50
2023-03-15T10:52:48.909Z,10.40
2023-03-15T10:55:31.313Z,12.20
2023-03-15T10:58:11.347Z,11.00
2023-03-15T11:00:52.201Z,6.80
2023-03-15T11:03:24.005Z,8.30
2023-03-15T11:05:55.110Z,8.10
2023-03-15T11:08:43.366Z,9.40
2023-03-15T11:11:10.170Z,7.80
2023-03-15T11:13:43.595Z,7.80
2023-03-15T11:16:13.070Z,10.50
2023-03-15T11:18:46.879Z,10.40
2023-03-15T11:21:19.688Z,8.20
2023-03-15T11:23:49.039Z,7.50
2023-03-15T11:26:37.107Z,8.10
2023-03-15T11:29:14.946Z,8.50
2023-03-15T11:31:44.284Z,8.30
2023-03-15T11:34:38.670Z,5.40
2023-03-15T11:37:17.046Z,6.30
2023-03-15T11:40:11.734Z,7.90
2023-03-15T11:42:56.736Z,9.30
2023-03-15T11:45:40.151Z,7.40
2023-03-15T11:48:33.677Z,7.30
2023-03-15T11:51:03.766Z,8.20
2023-03-15T11:53:42.619Z,10.90
2023-03-15T11:56:46.843Z,8.50
2023-03-15T11:59:19.891Z,6.50
2023-03-15T12:01:51.466Z,10.20
2023-03-15T12:04:32.375Z,9.60
2023-03-15T12:07:25.060Z,15.20
2023-03-15T12:10:16.056Z,9.50
2023-03-15T12:12:46.435Z,10.10
2023-03-15T12:15:19.039Z,9.00
2023-03-15T12:17:59.482Z,11.30
2023-03-15T12:20:40.282Z,10.60
2023-03-15T12:23:17.627Z,11.10
2023-03-15T12:26:07.700Z,9.50
2023-03-15T12:28:40.698Z,13.50
2023-03-15T12:31:12.313Z,10.40
2023-03-15T12:33:48.951Z,10.00
2023-03-15T12:36:37.366Z,10.00
2023-03-15T12:39:15.971Z,7.00
2023-03-15T12:41:50.940Z,7.60
2023-03-15T12:44:27.270Z,11.90
2023-03-15T12:46:58.285Z,9.40
2023-03-15T12:49:32.780Z,13.70
2023-03-15T12:52:13.003Z,8.70
2023-03-15T12:55:08.171Z,7.30
2023-03-15T12:57:46.215Z,11.90
2023-03-15T13:00:16.053Z,8.40
2023-03-15T13:03:08.112Z,5.90
2023-03-15T13:06:02.851Z,13.70
2023-03-15T14:19:28.545Z,11.80
2023-03-15T14:22:02.190Z,9.40
2023-03-15T14:24:40.545Z,8.90
2023-03-15T14:27:22.276Z,9.80
2023-03-15T14:29:53.788Z,8.20
2023-03-15T14:32:30.117Z,7.90
2023-03-15T14:35:04.391Z,10.80
2023-03-15T14:37:43.386Z,10.50
2023-03-15T14:40:21.283Z,7.40
2023-03-15T14:42:50.560Z,8.20
2023-03-15T14:45:21.589Z,10.30
2023-03-15T14:47:57.164Z,11.70
2023-03-15T14:50:34.649Z,10.80
2023-03-15T14:53:02.311Z,10.60
2023-03-15T14:55:34.082Z,8.50
2023-03-15T14:58:12.097Z,9.10
2023-03-15T15:00:39.348Z,7.20
2023-03-15T15:03:16.565Z,11.40
2023-03-15T15:05:45.997Z,7.70
2023-03-15T15:08:21.483Z,8.00
2023-03-15T15:10:50.302Z,10.30
2023-03-15T15:13:27.282Z,12.70
2023-03-15T15:15:57.498Z,6.80
2023-03-15T15:18:26.064Z,7.10
2023-03-15T15:21:02.283Z,14.10
2023-03-15T15:23:31.265Z,7.50
2023-03-15T15:26:08.758Z,5.70
2023-03-15T15:28:41.598Z,13.00
2023-03-15T15:31:17.815Z,14.70
2023-03-15T15:33:46.960Z,9.90
2023-03-15T15:36:18.667Z,14.80
2023-03-15T15:38:50.415Z,14.20
2023-03-15T15:41:27.302Z,11.60
2023-03-15T15:43:59.959Z,14.50
2023-03-15T15:46:27.198Z,10.60
2023-03-15T15:48:58.175Z,10.60
2023-03-15T15:51:30.994Z,16.40
2023-03-15T15:54:01.693Z,8.20
2023-03-15T15:56:39.479Z,9.60
2023-03-15T15:59:16.932Z,11.10
2023-03-15T16:02:00.055Z,11.80
2023-03-15T16:04:33.095Z,13.70
2023-03-15T16:07:03.801Z,6.20
2023-03-15T16:09:37.005Z,6.30
2023-03-15T16:12:13.499Z,7.40
2023-03-15T16:14:41.033Z,13.20
2023-03-15T16:17:11.137Z,16.00
2023-03-15T16:19:39.847Z,12.50
2023-03-15T16:22:11.218Z,13.30
2023-03-15T16:24:44.789Z,14.80
2023-03-15T16:27:15.361Z,13.10
2023-03-15T16:29:49.383Z,18.40
2023-03-15T16:32:36.742Z,12.20
2023-03-15T16:35:16.626Z,15.20
2023-03-15T16:37:46.060Z,11.60
2023-03-15T16:40:28.727Z,10.70
2023-03-15T16:42:55.974Z,11.80
2023-03-15T16:45:27.890Z,10.60
2023-03-15T16:47:57.142Z,15.20
2023-03-15T16:50:23.671Z,12.00
2023-03-15T16:52:54.409Z,15.50
2023-03-15T16:55:24.957Z,12.20
2023-03-15T16:57:53.771Z,16.60
2023-03-15T17:00:21.521Z,17.90
2023-03-15T17:02:59.290Z,16.40
2023-03-15T17:05:28.593Z,13.20
2023-03-15T17:07:55.496Z,12.80
2023-03-15T17:10:25.091Z,16.50
2023-03-15T17:12:55.177Z,17.10
2023-03-15T17:15:30.177Z,13.80
2023-03-15T17:17:57.046Z,17.60
2023-03-15T17:20:30.716Z,13.40
2023-03-15T17:23:05.736Z,16.70
2023-03-15T17:25:38.357Z,17.80
2023-03-15T17:28:07.669Z,13.10
2023-03-15T17:30:38.495Z,20.90
2023-03-15T17:33:07.724Z,9.20
2023-03-15T17:35:46.474Z,7.70
2023-03-15T17:38:18.741Z,9.50
2023-03-15T17:40:50.772Z,10.80
2023-03-15T17:43:20.568Z,11.90
2023-03-15T17:45:47.056Z,11.20
2023-03-15T17:48:14.738Z,10.90
2023-03-15T17:50:43.864Z,12.60
2023-03-15T17:53:16.810Z,16.50
2023-03-15T17:55:49.146Z,12.70
2023-03-15T17:58:21.021Z,9.80
2023-03-15T18:00:53.897Z,7.70
2023-03-15T18:03:22.270Z,11.20
2023-03-15T18:05:52.201Z,12.40
2023-03-15T18:08:21.606Z,9.20
2023-03-15T18:10:51.238Z,10.80
2023-03-15T18:13:21.000Z,11.40
2023-03-15T18:15:54.167Z,10.30
2023-03-15T18:18:23.412Z,11.70
2023-03-15T18:23:25.463Z,11.10
2023-03-15T18:25:59.161Z,12.40
2023-03-15T18:28:30.341Z,9.20
2023-03-15T18:31:01.892Z,14.90
2023-03-15T18:33:29.597Z,9.10
2023-03-15T18:35:56.761Z,12.10
2023-03-15T18:38:23.427Z,14.20
2023-03-15T18:40:54.829Z,11.60
2023-03-15T18:43:26.702Z,9.50
2023-03-15T18:45:56.065Z,11.70
2023-03-15T18:48:40.066Z,11.10
2023-03-15T18:51:11.433Z,8.30
2023-03-15T18:53:44.673Z,14.70
2023-03-15T18:56:21.421Z,15.10
2023-03-15T18:58:49.575Z,13.30
2023-03-15T19:01:21.624Z,14.30
2023-03-15T19:03:54.266Z,11.90
2023-03-15T19:06:22.618Z,14.80
2023-03-15T19:08:52.673Z,18.20
2023-03-15T19:11:23.251Z,24.50
2023-03-15T19:13:55.256Z,33.30
2023-03-15T19:16:24.763Z,31.40
2023-03-15T19:18:58.606Z,27.00
2023-03-15T19:21:27.650Z,26.90
2023-03-15T19:23:59.106Z,30.00
2023-03-15T19:26:28.308Z,29.60
2023-03-15T19:29:03.381Z,30.90
2023-03-15T19:31:32.675Z,37.70
2023-03-15T19:34:02.389Z,40.00
2023-03-15T19:36:31.468Z,46.20
2023-03-15T19:39:04.863Z,54.30
2023-03-15T19:41:31.291Z,52.10
2023-03-15T19:43:58.129Z,67.00
2023-03-15T19:46:27.929Z,80.70
2023-03-15T19:48:54.415Z,103.60
2023-03-15T19:51:23.489Z,95.60
2023-03-15T19:53:51.952Z,81.10
2023-03-15T19:56:20.858Z,62.40
2023-03-15T19:58:50.647Z,53.70
2023-03-15T20:01:17.273Z,41.10
2023-03-15T20:03:46.218Z,44.50
2023-03-15T20:06:13.740Z,41.20
2023-03-15T20:08:43.579Z,40.10
2023-03-15T20:11:19.505Z,40.80
2023-03-15T20:13:56.855Z,38.50
2023-03-15T20:16:23.579Z,34.70
2023-03-15T20:18:50.705Z,38.00
2023-03-15T20:21:18.178Z,41.10
2023-03-15T20:23:47.481Z,47.30
2023-03-15T20:26:16.141Z,45.50
2023-03-15T20:28:49.894Z,41.90
2023-03-15T20:31:17.995Z,44.10
2023-03-15T20:33:49.008Z,45.70
2023-03-15T20:36:18.783Z,39.20
2023-03-15T20:38:51.185Z,42.50
2023-03-15T20:41:20.238Z,49.10
2023-03-15T20:43:51.659Z,47.60
2023-03-15T20:46:23.996Z,54.10
2023-03-15T20:48:59.298Z,56.60
2023-03-15T20:51:30.920Z,48.60
2023-03-15T20:53:57.732Z,49.00
2023-03-15T20:56:33.229Z,46.80
2023-03-15T20:59:11.451Z,52.20
2023-03-15T21:01:38.056Z,51.80
2023-03-15T21:04:12.460Z,54.60
2023-03-15T21:06:41.215Z,57.50
2023-03-15T21:09:07.897Z,51.60
2023-03-15T21:11:37.022Z,54.00
2023-03-15T21:14:03.623Z,52.40
2023-03-15T21:16:32.815Z,62.70
2023-03-15T21:19:00.918Z,65.30
2023-03-15T21:21:27.879Z,64.10
2023-03-15T21:23:56.936Z,71.50
2023-03-15T21:26:23.727Z,67.10
2023-03-15T21:29:01.046Z,68.70
2023-03-15T21:31:27.774Z,67.20
2023-03-15T21:33:57.640Z,60.80
2023-03-15T21:36:29.326Z,71.60
2023-03-15T21:39:01.378Z,61.30
2023-03-15T21:41:28.139Z,70.50
2023-03-15T21:43:59.250Z,69.90
2023-03-15T21:46:31.050Z,60.70
2023-03-15T21:49:03.895Z,67.00
2023-03-15T21:51:34.017Z,58.80
2023-03-15T21:54:02.918Z,61.40
2023-03-15T21:56:34.255Z,55.30
2023-03-15T21:59:06.707Z,58.80
2023-03-15T22:01:53.034Z,52.70
2023-03-15T22:04:40.410Z,46.00
2023-03-15T22:25:04.742Z,54.10
2023-03-15T22:27:33.645Z,52.30
2023-03-15T22:30:03.954Z,48.00
2023-03-15T22:32:32.736Z,54.00
2023-03-15T22:34:59.489Z,52.80
2023-03-15T22:37:26.141Z,48.40
2023-03-15T22:54:02.488Z,43.50
2023-03-15T22:56:29.462Z,48.20
2023-03-15T22:59:01.277Z,50.70
2023-03-15T23:01:28.513Z,49.30
2023-03-15T23:22:24.650Z,46.20
2023-03-15T23:25:03.999Z,55.90
2023-03-15T23:27:31.269Z,55.00
2023-03-15T23:29:58.573Z,51.80
2023-03-15T23:32:25.755Z,49.70
2023-03-15T23:34:53.202Z,52.30
2023-03-15T23:37:20.220Z,53.80
2023-03-15T23:39:52.765Z,54.10
2023-03-15T23:42:25.170Z,49.80
2023-03-15T23:44:53.977Z,51.00
2023-03-15T23:47:28.628Z,45.30
2023-03-15T23:49:55.352Z,41.30
2023-03-15T23:52:25.772Z,40.80
2023-03-15T23:54:54.783Z,40.90
2023-03-15T23:57:21.445Z,44.20
2023-03-15T23:59:48.229Z,41.50
